Monday, June 25, 2018, 4:19 AM GMT
Back to Local

CYQI, Yarmouth, N. S.

Location: , , Canada Lat: 43.833
Local Time: 4:19 AM GMT ( 4:19 GMT) Lon: -66.083
Time Zone: GMT Elev: 141 ft

Show me the last for .
Show Decoded

2018-06-25 04:06 METAR CYQI 250406Z 23007KT 3/8SM FG VV002 13/13 A2983 RMK FG8 SLP104 =
2018-06-25 04:00 METAR CYQI 250400Z 24006KT 1/2SM FG VV002 13/13 A2983 RMK FG8 SLP104 =
2018-06-25 03:08 METAR CYQI 250308Z 21004KT 1/2SM FG VV002 13/13 A2984 RMK FG8 SLP105 =
2018-06-25 03:02 METAR CYQI 250302Z 22005KT 3/4SM BR VV002 13/13 A2984 RMK FG8 SLP107 =
2018-06-25 03:00 METAR CYQI 250300Z 23005KT 1SM BR OVC001 13/13 A2984 RMK ST8 SLP107 =
2018-06-25 02:54 METAR CYQI 250254Z 24004KT 2SM BR OVC001 13/13 A2984 RMK ST8 SLP107 =
2018-06-25 02:44 METAR CYQI 250244Z 24004KT 2 1/2SM BR OVC002 13/13 A2984 RMK ST8 SLP106 =
2018-06-25 02:27 METAR CYQI 250227Z 26005KT 9SM OVC002 13/13 A2985 RMK ST8 SLP109 =
2018-06-25 02:00 METAR CYQI 250200Z 25006KT 10SM OVC003 13/13 A2986 RMK ST8 SLP112 =
2018-06-25 01:47 METAR CYQI 250147Z 23005KT 10SM OVC003 13/13 A2985 RMK ST8 SLP111 =
2018-06-25 01:39 METAR CYQI 250139Z 24006KT 10SM OVC004 13/13 A2986 RMK ST8 SLP113 =
2018-06-25 01:33 METAR CYQI 250133Z 24006KT 10SM BKN008 OVC090 13/13 A2986 RMK ST6AS2 SLP112 =
2018-06-25 01:00 METAR CYQI 250100Z 24007KT 15SM FEW004 SCT058 BKN080 13/13 A2985 RMK SF1SC2AC4
                 SLP109 =
2018-06-25 00:00 METAR CYQI 250000Z 27005KT 15SM SCT003 OVC064 13/13 A2984 RMK SF3SC5 SLP105 =
2018-06-24 23:00 METAR CYQI 242300Z 27009KT 15SM FEW007 BKN068 BKN230 14/13 A2984 RMK SF1AC5CI1
                 SLP105 DENSITY ALT 200FT =
2018-06-24 22:00 METAR CYQI 242200Z 27010KT 15SM SCT007 BKN069 BKN250 15/13 A2983 RMK SF3AC2CI1
                 SLP104 DENSITY ALT 300FT =
2018-06-24 21:00 METAR CYQI 242100Z 29009KT 15SM FEW008 SCT039 BKN250 16/13 A2980 RMK SF1SC2CI4
                 SLP094 DENSITY ALT 500FT =
2018-06-24 20:00 METAR CYQI 242000Z 28010KT 12SM SCT006 OVC041 15/13 A2981 RMK SF4SC4 SLP098
                 DENSITY ALT 300FT =
2018-06-24 19:49 METAR CYQI 241949Z 29010KT 12SM SCT008 BKN040 16/12 A2981 RMK SF4SC3 SLP096
                 DENSITY ALT 400FT =
2018-06-24 19:00 METAR CYQI 241900Z 32011KT 12SM OVC006 15/13 A2981 RMK SF8 SLP095 DENSITY ALT
                 300FT =
2018-06-24 18:00 METAR CYQI 241800Z 30007KT 6SM BR OVC003 14/13 A2981 RMK SF8 SLP096 DENSITY ALT
                 300FT =
2018-06-24 17:46 METAR CYQI 241746Z 30010KT 4SM BR OVC004 14/13 A2981 RMK SF8 SLP097 DENSITY ALT
                 200FT =
2018-06-24 17:00 METAR CYQI 241700Z 28009KT 15SM OVC009 15/12 A2980 RMK SF8 SLP092 DENSITY ALT
                 300FT =
2018-06-24 16:00 METAR CYQI 241600Z 32011KT 15SM OVC009 16/13 A2980 RMK SF8 SLP092 DENSITY ALT
                 500FT =
2018-06-24 15:00 METAR CYQI 241500Z 30009KT 12SM BKN008 BKN020 16/13 A2979 RMK SF6SC1 SLP089
                 DENSITY ALT 500FT =
2018-06-24 14:00 METAR CYQI 241400Z 33011KT 10SM OVC006 14/12 A2978 RMK SF8 SLP086 DENSITY ALT
                 300FT =
2018-06-24 13:00 METAR CYQI 241300Z 29010KT 8SM OVC004 14/13 A2977 RMK SF8 SLP082 DENSITY ALT
                 300FT =
2018-06-24 12:25 METAR CYQI 241225Z 26006KT 8SM SCT003 BKN036TCU BKN250 15/15 A2975 RMK
                 SF4TCU2CI1 SLP076 DENSITY ALT 400FT =
2018-06-24 12:00 METAR CYQI 241200Z 27006KT 4SM BR BKN002 OVC040 15/14 A2976 RMK SF6SC2 SLP079
                 DENSITY ALT 400FT =
2018-06-24 11:50 METAR CYQI 241150Z 26004KT 4SM BR BKN002 OVC041 15/14 A2975 RMK SF6SC2 SLP076
                 DENSITY ALT 400FT =
2018-06-24 11:00 METAR CYQI 241100Z VRB02KT 2 1/2SM BR SCT003 BKN051 OVC120 14/14 A2974 RMK
                 SF3SC4AC1 SLP072 DENSITY ALT 300FT =
2018-06-24 10:28 METAR CYQI 241028Z 30002KT 1 1/2SM BR SCT002 BKN054 OVC250 13/13 A2972 RMK
                 FG2SF2SC3CI1 SLP066 DENSITY ALT 200FT =
2018-06-24 10:00 METAR CYQI 241000Z 25003KT 1/2SM FG BKN002 OVC030 13/12 A2973 RMK FG2SF5SC1
                 SLP070 =
2018-06-24 09:00 METAR CYQI 240900Z 19005KT 1/2SM FG OVC002 13/12 A2972 RMK FG4SF4 SLP067 =
2018-06-24 08:42 METAR CYQI 240842Z 24004KT 1/2SM FG OVC002 12/12 A2972 RMK FG6SF2 SLP065 =
2018-06-24 08:00 METAR CYQI 240800Z 28005KT 2SM BR OVC004 13/12 A2970 RMK SF8 SLP060 DENSITY ALT
                 200FT =
2018-06-24 07:00 METAR CYQI 240700Z 25004KT 1SM -DZ BR OVC002 13/13 A2971 RMK FG4SF4 PRESFR
                 SLP062 DENSITY ALT 300FT =
2018-06-24 06:00 METAR CYQI 240600Z 20007KT 1SM -DZ BR OVC002 15/15 A2974 RMK FG2SF6 SLP072
                 DENSITY ALT 400FT =
2018-06-24 05:00 METAR CYQI 240500Z 16007KT 1SM -DZ BR OVC002 17/17 A2974 RMK SF8 SLP073 DENSITY
                 ALT 600FT =
2018-06-24 04:24 METAR CYQI 240424Z 13007KT 1 1/2SM -DZ BR OVC002 17/17 A2976 RMK SF8 SLP079
                 DENSITY ALT 600FT =

Support USWX by starting your Amazon purchase here.